createdAt,value
2023-05-14T00:00:32.983Z,9.309078
2023-05-14T00:01:32.950Z,9.309091
2023-05-14T00:02:33.121Z,9.309155
2023-05-14T00:03:33.037Z,9.309207
2023-05-14T00:04:33.349Z,9.309147
2023-05-14T00:05:32.961Z,9.309134
2023-05-14T00:06:32.939Z,9.309104
2023-05-14T00:07:32.917Z,9.309121
2023-05-14T00:08:32.946Z,9.309056
2023-05-14T00:09:32.952Z,9.309142
2023-05-14T00:10:32.984Z,9.309009
2023-05-14T00:11:32.972Z,9.309107
2023-05-14T00:12:32.867Z,9.309125
2023-05-14T00:13:32.952Z,9.309009
2023-05-14T00:14:32.889Z,9.308978
2023-05-14T00:15:34.485Z,9.309078
2023-05-14T00:16:33.949Z,9.309196
2023-05-14T00:17:32.931Z,9.309243
2023-05-14T00:18:32.911Z,9.309184
2023-05-14T00:19:32.820Z,9.309227
2023-05-14T00:20:32.766Z,9.309057
2023-05-14T00:21:32.768Z,9.308935
2023-05-14T00:22:32.759Z,9.308997
2023-05-14T01:48:38.485Z,9.308825
2023-05-14T01:49:02.980Z,9.308904
2023-05-14T01:50:03.015Z,9.309070
2023-05-14T01:51:03.278Z,9.309296
2023-05-14T01:52:03.068Z,9.309371
2023-05-14T01:53:03.030Z,9.309419
2023-05-14T01:54:03.044Z,9.309356
2023-05-14T01:55:13.616Z,9.309271
2023-05-14T01:56:02.964Z,9.308881
2023-05-14T01:57:03.045Z,9.309036
2023-05-14T01:58:02.951Z,9.309041
2023-05-14T01:59:02.919Z,9.309023
2023-05-14T02:00:02.910Z,9.309215
2023-05-14T02:01:02.869Z,9.309103
2023-05-14T02:02:02.795Z,9.308956
2023-05-14T02:03:02.953Z,9.309034
2023-05-14T02:04:02.861Z,9.309156
2023-05-14T02:05:04.285Z,9.309161
2023-05-14T02:06:02.806Z,9.309154
2023-05-14T02:07:02.838Z,9.309166
2023-05-14T02:08:02.845Z,9.309175
2023-05-14T02:09:02.905Z,9.309223
2023-05-14T02:10:02.892Z,9.309141
2023-05-14T02:11:02.879Z,9.309069
2023-05-14T02:12:02.909Z,9.309011
2023-05-14T02:13:02.702Z,9.309104
2023-05-14T02:14:02.806Z,9.309200
2023-05-14T02:15:02.940Z,9.309251
2023-05-14T02:16:02.900Z,9.309207
2023-05-14T02:17:02.872Z,9.309108
2023-05-14T02:18:03.092Z,9.308972
2023-05-14T02:19:02.830Z,9.308935
2023-05-14T02:20:02.760Z,9.308838
2023-05-14T02:21:02.840Z,9.308838
2023-05-14T02:22:02.794Z,9.309178
2023-05-14T02:23:02.756Z,9.309111
2023-05-14T02:24:02.734Z,9.309117
2023-05-14T02:25:02.764Z,9.309188
2023-05-14T02:26:02.773Z,9.309038
2023-05-14T02:27:02.759Z,9.309041
2023-05-14T02:28:02.685Z,9.309032
2023-05-14T02:29:03.020Z,9.308949
2023-05-14T02:30:02.650Z,9.308874
2023-05-14T02:31:02.628Z,9.308902
2023-05-14T02:32:02.818Z,9.308886
2023-05-14T02:33:02.725Z,9.308772
2023-05-14T02:34:02.711Z,9.308804
2023-05-14T02:35:02.615Z,9.308809
2023-05-14T02:36:02.750Z,9.308791
2023-05-14T02:37:02.725Z,9.308852
2023-05-14T02:38:02.740Z,9.308879
2023-05-14T02:39:02.707Z,9.308835
2023-05-14T02:40:02.693Z,9.308689
2023-05-14T02:41:02.875Z,9.308898
2023-05-14T02:42:03.705Z,9.308949
2023-05-14T02:43:02.632Z,9.308970
2023-05-14T02:44:02.598Z,9.308924
2023-05-14T02:45:02.648Z,9.309061
2023-05-14T02:46:02.619Z,9.309181
2023-05-14T02:47:02.774Z,9.309142
2023-05-14T02:48:03.848Z,9.309112
2023-05-14T02:49:02.558Z,9.308971
2023-05-14T02:50:02.532Z,9.309021
2023-05-14T02:51:02.475Z,9.309035
2023-05-14T02:52:02.489Z,9.309108
2023-05-14T02:53:02.452Z,9.309006
2023-05-14T02:54:02.551Z,9.308959
2023-05-14T02:55:02.574Z,9.308949
2023-05-14T02:56:03.544Z,9.309063
2023-05-14T02:57:02.524Z,9.309101
2023-05-14T02:58:02.790Z,9.309178
2023-05-14T02:59:02.616Z,9.309142
2023-05-14T03:00:02.490Z,9.309053
2023-05-14T03:01:02.570Z,9.309082
2023-05-14T03:02:02.527Z,9.309070
2023-05-14T03:03:02.508Z,9.309075
2023-05-14T03:04:02.444Z,9.309040
2023-05-14T03:05:02.527Z,9.308996
2023-05-14T03:06:02.470Z,9.309203
2023-05-14T03:07:02.474Z,9.309141
2023-05-14T03:08:02.455Z,9.308970
2023-05-14T03:09:02.697Z,9.309032
2023-05-14T03:10:02.494Z,9.309195
2023-05-14T03:11:02.448Z,9.308998
2023-05-14T03:12:02.434Z,9.308936
2023-05-14T03:13:02.310Z,9.309082
2023-05-14T03:14:02.405Z,9.309017
2023-05-14T03:15:02.393Z,9.308979
2023-05-14T03:16:02.475Z,9.309119
2023-05-14T03:17:02.417Z,9.309047
2023-05-14T03:18:02.459Z,9.308967
2023-05-14T03:19:02.325Z,9.308935
2023-05-14T03:20:02.311Z,9.308974
2023-05-14T03:21:02.288Z,9.309023
2023-05-14T03:22:02.291Z,9.309006
2023-05-14T03:23:02.260Z,9.308843
2023-05-14T03:24:02.288Z,9.308874
2023-05-14T03:25:02.203Z,9.308978
2023-05-14T03:26:02.279Z,9.308952
2023-05-14T03:27:02.311Z,9.309014
2023-05-14T03:28:02.231Z,9.309053
2023-05-14T03:29:02.268Z,9.309055
2023-05-14T03:30:02.214Z,9.308981
2023-05-14T03:31:02.299Z,9.309004
2023-05-14T03:32:02.255Z,9.308968
2023-05-14T03:33:02.339Z,9.309038
2023-05-14T03:34:02.312Z,9.309117
2023-05-14T03:35:02.258Z,9.309068
2023-05-14T03:36:02.243Z,9.309026
2023-05-14T03:37:02.258Z,9.308973
2023-05-14T03:38:02.296Z,9.309052
2023-05-14T03:39:02.565Z,9.309063
2023-05-14T03:40:02.239Z,9.309062
2023-05-14T03:41:02.265Z,9.308994
2023-05-14T03:42:02.276Z,9.308977
2023-05-14T03:43:02.306Z,9.309039
2023-05-14T03:44:03.208Z,9.308950
2023-05-14T03:45:02.282Z,9.309093
2023-05-14T03:46:02.171Z,9.309066
2023-05-14T03:47:02.284Z,9.309073
2023-05-14T03:48:02.328Z,9.309096
2023-05-14T03:49:02.707Z,9.309076
2023-05-14T03:50:02.383Z,9.309040
2023-05-14T03:51:02.114Z,9.309094
2023-05-14T03:52:02.076Z,9.309106
2023-05-14T03:53:02.049Z,9.309082
2023-05-14T03:54:02.117Z,9.309106
2023-05-14T03:55:02.032Z,9.309091
2023-05-14T03:56:02.353Z,9.309139
2023-05-14T03:57:02.014Z,9.309067
2023-05-14T03:58:02.035Z,9.309100
2023-05-14T03:59:02.184Z,9.309046
2023-05-14T04:00:02.082Z,9.309059
2023-05-14T04:01:02.117Z,9.309108
2023-05-14T04:02:02.100Z,9.309088
2023-05-14T04:03:02.155Z,9.309188
2023-05-14T04:04:02.156Z,9.309105
2023-05-14T04:05:02.125Z,9.309121
2023-05-14T04:06:02.161Z,9.309096
2023-05-14T04:07:02.059Z,9.309185
2023-05-14T04:08:02.053Z,9.309090
2023-05-14T04:09:02.307Z,9.309112
2023-05-14T04:10:04.326Z,9.309123
2023-05-14T04:11:02.981Z,9.309135
2023-05-14T04:12:01.991Z,9.309174
2023-05-14T04:13:01.906Z,9.309088
2023-05-14T04:14:01.989Z,9.309155
2023-05-14T04:15:02.002Z,9.309082
2023-05-14T04:16:02.016Z,9.308993
2023-05-14T04:17:01.999Z,9.309079
2023-05-14T04:18:02.053Z,9.309052
2023-05-14T04:19:02.015Z,9.309067
2023-05-14T04:20:01.945Z,9.309082
2023-05-14T04:21:02.206Z,9.309147
2023-05-14T04:22:01.922Z,9.309095
2023-05-14T04:23:01.916Z,9.309036
2023-05-14T04:24:01.912Z,9.309042
2023-05-14T04:25:01.959Z,9.309051
2023-05-14T04:26:01.883Z,9.309102
2023-05-14T04:27:01.953Z,9.309156
2023-05-14T04:28:01.908Z,9.309090
2023-05-14T04:29:01.924Z,9.309089
2023-05-14T04:30:01.864Z,9.309126
2023-05-14T04:31:01.967Z,9.309034
2023-05-14T04:32:02.311Z,9.309053
2023-05-14T04:33:01.949Z,9.309258
2023-05-14T04:34:01.759Z,9.309040
2023-05-14T04:35:01.808Z,9.309018
2023-05-14T04:36:01.718Z,9.309071
2023-05-14T04:37:01.735Z,9.309062
2023-05-14T04:38:01.806Z,9.309068
2023-05-14T04:39:01.751Z,9.309066
2023-05-14T04:40:01.699Z,9.309142
2023-05-14T04:41:01.720Z,9.309081
2023-05-14T04:42:01.692Z,9.309139
2023-05-14T04:43:01.737Z,9.309018
2023-05-14T04:44:01.766Z,9.309043
2023-05-14T04:45:25.874Z,9.309112
2023-05-14T04:46:01.772Z,9.309119
2023-05-14T04:47:01.775Z,9.309070
2023-05-14T04:48:01.855Z,9.309019
2023-05-14T04:49:01.848Z,9.309031
2023-05-14T04:50:01.765Z,9.309030
2023-05-14T04:51:02.064Z,9.308978
2023-05-14T04:52:01.767Z,9.309033
2023-05-14T04:53:02.840Z,9.308933
2023-05-14T04:54:02.029Z,9.308995
2023-05-14T04:55:01.727Z,9.309022
2023-05-14T04:56:01.757Z,9.309012
2023-05-14T04:57:02.436Z,9.309085
2023-05-14T04:58:01.688Z,9.309081
2023-05-14T04:59:01.709Z,9.309070
2023-05-14T05:00:01.731Z,9.309034
2023-05-14T05:01:01.677Z,9.309024
2023-05-14T05:02:01.693Z,9.309022
2023-05-14T05:03:01.797Z,9.309065
2023-05-14T05:04:01.652Z,9.309088
2023-05-14T05:05:01.735Z,9.309030
2023-05-14T05:06:01.662Z,9.309072
2023-05-14T05:07:01.572Z,9.309046
2023-05-14T05:08:01.801Z,9.309036
2023-05-14T05:09:02.270Z,9.309127
2023-05-14T05:10:01.625Z,9.309063
2023-05-14T05:11:01.603Z,9.309018
2023-05-14T05:12:01.603Z,9.308997
2023-05-14T05:13:01.501Z,9.309048
2023-05-14T05:14:01.509Z,9.309018
2023-05-14T05:15:01.455Z,9.308994
2023-05-14T05:16:01.537Z,9.308982
2023-05-14T05:17:01.432Z,9.309019
2023-05-14T05:18:01.554Z,9.309039
2023-05-14T05:19:01.563Z,9.309036
2023-05-14T05:20:01.537Z,9.309126
2023-05-14T05:21:01.523Z,9.309104
2023-05-14T05:22:01.529Z,9.309109
2023-05-14T05:23:01.472Z,9.309115
2023-05-14T05:24:01.482Z,9.309109
2023-05-14T05:25:01.474Z,9.309107
2023-05-14T05:26:01.732Z,9.309139
2023-05-14T05:27:01.477Z,9.309133
2023-05-14T05:28:01.445Z,9.309118
2023-05-14T05:29:01.476Z,9.309140
2023-05-14T05:30:02.495Z,9.309175
2023-05-14T05:31:01.463Z,9.309155
2023-05-14T05:32:01.416Z,9.309153
2023-05-14T05:33:01.539Z,9.309089
2023-05-14T05:34:01.500Z,9.309076
2023-05-14T05:35:01.438Z,9.309116
2023-05-14T05:36:01.458Z,9.309056
2023-05-14T05:37:02.653Z,9.309044
2023-05-14T05:38:01.884Z,9.309032
2023-05-14T05:39:02.364Z,9.309092
2023-05-14T05:40:01.400Z,9.309118
2023-05-14T05:41:01.344Z,9.309093
2023-05-14T05:42:01.373Z,9.309121
2023-05-14T05:43:01.247Z,9.309088
2023-05-14T05:44:01.299Z,9.309081
2023-05-14T05:45:01.275Z,9.309092
2023-05-14T05:46:01.304Z,9.309107
2023-05-14T05:47:01.408Z,9.309127
2023-05-14T05:48:01.304Z,9.309090
2023-05-14T05:49:02.290Z,9.309080
2023-05-14T05:50:01.205Z,9.309123
2023-05-14T05:51:01.520Z,9.309071
2023-05-14T05:52:01.313Z,9.309153
2023-05-14T05:53:01.263Z,9.309133
2023-05-14T05:54:01.257Z,9.309110
2023-05-14T05:55:17.473Z,9.309072
2023-05-14T05:56:01.147Z,9.309072
2023-05-14T05:57:01.351Z,9.309072
2023-05-14T05:58:01.321Z,9.309154
2023-05-14T05:59:01.275Z,9.309129
2023-05-14T06:00:01.399Z,9.309088
2023-05-14T06:01:01.288Z,9.309080
2023-05-14T06:02:02.286Z,9.309067
2023-05-14T06:03:01.504Z,9.309056
2023-05-14T06:04:01.254Z,9.309152
2023-05-14T06:05:01.224Z,9.309079
2023-05-14T06:06:01.252Z,9.309075
2023-05-14T06:07:01.165Z,9.309084
2023-05-14T06:08:01.157Z,9.309131
2023-05-14T06:09:01.171Z,9.309097
2023-05-14T06:10:01.175Z,9.309072
2023-05-14T06:11:01.181Z,9.309114
2023-05-14T06:12:01.269Z,9.309029
2023-05-14T06:13:01.159Z,9.308928
2023-05-14T06:14:01.188Z,9.309097
2023-05-14T06:15:01.421Z,9.309140
2023-05-14T06:16:01.323Z,9.309177
2023-05-14T06:17:01.212Z,9.309095
2023-05-14T06:18:01.066Z,9.309088
2023-05-14T06:19:01.093Z,9.309128
2023-05-14T06:20:01.026Z,9.309139
2023-05-14T06:21:00.994Z,9.309093
2023-05-14T06:22:01.046Z,9.309074
2023-05-14T06:23:01.058Z,9.309041
2023-05-14T06:24:00.988Z,9.309114
2023-05-14T06:25:01.049Z,9.309127
2023-05-14T06:26:00.977Z,9.309078
2023-05-14T06:27:00.962Z,9.309060
2023-05-14T06:28:02.008Z,9.309093
2023-05-14T06:29:00.973Z,9.309121
2023-05-14T06:30:01.002Z,9.309145
2023-05-14T06:31:01.037Z,9.309122
2023-05-14T06:32:01.344Z,9.309115
2023-05-14T06:33:01.081Z,9.309090
2023-05-14T06:34:00.974Z,9.309088
2023-05-14T06:35:00.995Z,9.309054
2023-05-14T06:36:02.011Z,9.309027
2023-05-14T06:37:00.992Z,9.309060
2023-05-14T06:38:01.122Z,9.309096
2023-05-14T06:39:00.944Z,9.309129
2023-05-14T06:40:00.954Z,9.309101
2023-05-14T06:41:00.978Z,9.309104
2023-05-14T06:42:00.906Z,9.309083
2023-05-14T06:43:01.391Z,9.309157
2023-05-14T06:44:00.850Z,9.309114
2023-05-14T06:45:00.849Z,9.309060
2023-05-14T06:46:00.818Z,9.309012
2023-05-14T06:47:01.446Z,9.309031
2023-05-14T06:48:00.998Z,9.309085
2023-05-14T06:49:01.240Z,9.309116
2023-05-14T06:50:00.889Z,9.309178
2023-05-14T06:51:00.820Z,9.309101
2023-05-14T06:52:00.908Z,9.309072
2023-05-14T06:53:00.864Z,9.309047
2023-05-14T06:54:00.889Z,9.309039
2023-05-14T06:55:00.829Z,9.309030
2023-05-14T06:56:00.891Z,9.309057
2023-05-14T06:57:00.826Z,9.309120
2023-05-14T06:58:00.791Z,9.309139
2023-05-14T06:59:00.798Z,9.309153
2023-05-14T07:00:03.283Z,9.309097
2023-05-14T07:01:01.858Z,9.309094
2023-05-14T07:02:00.843Z,9.309118
2023-05-14T07:03:00.739Z,9.309058
2023-05-14T07:04:01.994Z,9.309111
2023-05-14T07:05:00.807Z,9.309079
2023-05-14T07:06:00.816Z,9.309103
2023-05-14T07:07:00.777Z,9.309130
2023-05-14T07:08:00.846Z,9.309126
2023-05-14T07:09:00.773Z,9.309030
2023-05-14T07:10:00.709Z,9.309023
2023-05-14T07:11:00.732Z,9.308894
2023-05-14T07:12:00.663Z,9.308967
2023-05-14T07:13:00.635Z,9.309064
2023-05-14T07:14:00.608Z,9.309074
2023-05-14T07:15:00.599Z,9.309118
2023-05-14T07:16:00.683Z,9.309032
2023-05-14T07:17:00.655Z,9.309043
2023-05-14T07:18:00.650Z,9.309091
2023-05-14T07:19:00.670Z,9.309039
2023-05-14T07:20:00.603Z,9.309120
2023-05-14T07:21:00.591Z,9.309033
2023-05-14T07:22:00.636Z,9.309074
2023-05-14T07:23:00.554Z,9.309114
2023-05-14T07:24:00.541Z,9.309072
2023-05-14T07:25:00.652Z,9.309114
2023-05-14T07:26:01.609Z,9.309052
2023-05-14T07:27:00.743Z,9.309098
2023-05-14T07:28:00.605Z,9.309177
2023-05-14T07:29:00.654Z,9.309105
2023-05-14T07:30:00.824Z,9.309132
2023-05-14T07:31:00.704Z,9.309008
2023-05-14T07:32:00.608Z,9.308992
2023-05-14T07:33:00.750Z,9.309060
2023-05-14T07:34:00.590Z,9.309051
2023-05-14T07:35:00.658Z,9.309092
2023-05-14T07:36:00.537Z,9.309041
2023-05-14T07:37:00.526Z,9.309070
2023-05-14T07:38:00.603Z,9.309093
2023-05-14T07:39:00.547Z,9.309118
2023-05-14T07:40:00.491Z,9.309072
2023-05-14T07:41:00.736Z,9.309031
2023-05-14T07:42:00.465Z,9.309093
2023-05-14T07:43:00.532Z,9.309073
2023-05-14T07:44:00.562Z,9.309054
2023-05-14T07:45:00.540Z,9.309045
2023-05-14T07:46:00.499Z,9.309031
2023-05-14T07:47:00.715Z,9.309080
2023-05-14T07:48:00.766Z,9.309072
2023-05-14T07:49:00.491Z,9.309047
2023-05-14T07:50:00.677Z,9.309054
2023-05-14T07:51:00.464Z,9.309056
2023-05-14T07:52:00.763Z,9.309031
2023-05-14T07:53:00.385Z,9.309053
2023-05-14T07:54:00.339Z,9.309022
2023-05-14T07:55:00.405Z,9.309011
2023-05-14T07:56:00.333Z,9.309047
2023-05-14T07:57:00.376Z,9.309055
2023-05-14T07:58:00.346Z,9.309086
2023-05-14T07:59:00.420Z,9.309012
2023-05-14T08:00:00.702Z,9.309027
2023-05-14T08:01:00.361Z,9.308991
2023-05-14T08:02:00.275Z,9.309032
2023-05-14T08:03:00.531Z,9.308990
2023-05-14T08:04:00.471Z,9.308924
2023-05-14T08:05:00.455Z,9.308991
2023-05-14T08:06:00.311Z,9.308951
2023-05-14T08:07:00.358Z,9.308964
2023-05-14T08:08:00.406Z,9.308967
2023-05-14T08:09:00.657Z,9.308994
2023-05-14T08:10:00.314Z,9.308969
2023-05-14T08:11:00.434Z,9.308976
2023-05-14T08:12:00.313Z,9.309051
2023-05-14T08:13:00.307Z,9.308977
2023-05-14T08:14:00.301Z,9.309009
2023-05-14T08:15:00.490Z,9.308969
2023-05-14T08:16:00.283Z,9.308899
2023-05-14T08:17:00.331Z,9.308943
2023-05-14T08:18:00.324Z,9.309019
2023-05-14T08:19:00.315Z,9.309093
2023-05-14T08:20:00.504Z,9.309182
2023-05-14T08:21:01.650Z,9.309109
2023-05-14T08:22:18.534Z,9.309053
2023-05-14T08:23:00.163Z,9.308996
2023-05-14T08:24:00.339Z,9.308972
2023-05-14T08:25:00.248Z,9.308945
2023-05-14T08:26:00.251Z,9.308955
2023-05-14T08:27:00.156Z,9.308917
2023-05-14T08:28:00.195Z,9.309076
2023-05-14T08:29:00.193Z,9.309197
2023-05-14T08:30:17.084Z,9.309036
2023-05-14T08:31:01.169Z,9.308966
2023-05-14T08:32:05.823Z,9.308988
2023-05-14T08:33:01.233Z,9.308951
2023-05-14T08:34:00.507Z,9.308982
2023-05-14T08:35:00.156Z,9.308897
2023-05-14T08:36:00.171Z,9.308952
2023-05-14T08:37:00.066Z,9.308996
2023-05-14T08:38:00.010Z,9.308958
2023-05-14T08:39:00.065Z,9.308952
2023-05-14T08:40:00.066Z,9.309019
2023-05-14T08:41:00.177Z,9.309031
2023-05-14T08:41:59.989Z,9.309031
2023-05-14T08:43:00.128Z,9.309020
2023-05-14T08:44:00.152Z,9.309024
2023-05-14T08:45:00.155Z,9.309023
2023-05-14T08:46:00.416Z,9.309106
2023-05-14T08:47:00.161Z,9.309034
2023-05-14T08:48:00.243Z,9.309011
2023-05-14T08:49:00.116Z,9.308961
2023-05-14T08:50:00.092Z,9.308948
2023-05-14T08:50:59.993Z,9.308967
2023-05-14T08:52:00.011Z,9.308980
2023-05-14T08:52:59.969Z,9.309021
2023-05-14T08:53:59.937Z,9.309048
2023-05-14T08:55:00.080Z,9.309020
2023-05-14T08:55:59.964Z,9.309018
2023-05-14T08:57:00.245Z,9.309012
2023-05-14T08:57:59.973Z,9.309050
2023-05-14T08:59:00.030Z,9.309028
2023-05-14T09:00:00.004Z,9.309032
2023-05-14T09:01:00.172Z,9.309082
2023-05-14T09:05:31.843Z,9.309076
2023-05-14T09:06:31.467Z,9.308991
2023-05-14T09:07:31.577Z,9.308988
2023-05-14T09:08:31.686Z,9.309035
2023-05-14T09:09:31.499Z,9.309063
2023-05-14T09:10:31.378Z,9.309025
2023-05-14T09:11:31.407Z,9.309013
2023-05-14T09:12:31.327Z,9.308972
2023-05-14T09:13:31.282Z,9.309057
2023-05-14T09:14:31.248Z,9.309006
2023-05-14T09:15:31.319Z,9.309022
2023-05-14T09:16:31.318Z,9.309064
2023-05-14T09:17:31.484Z,9.309101
2023-05-14T09:18:31.393Z,9.309092
2023-05-14T09:19:37.154Z,9.309165
2023-05-14T09:20:31.305Z,9.309112
2023-05-14T09:21:33.539Z,9.309092
2023-05-14T09:22:33.489Z,9.309060
2023-05-14T09:23:31.289Z,9.309085
2023-05-14T09:24:31.213Z,9.309059
2023-05-14T09:25:31.345Z,9.309153
2023-05-14T09:26:32.958Z,9.309071
2023-05-14T09:27:31.556Z,9.309035
2023-05-14T09:28:31.291Z,9.309019
2023-05-14T09:29:31.472Z,9.309134
2023-05-14T09:31:04.557Z,9.309015
2023-05-14T09:31:31.299Z,9.309030
2023-05-14T09:32:31.422Z,9.308977
2023-05-14T09:33:31.316Z,9.308954
2023-05-14T09:34:31.326Z,9.308966
2023-05-14T09:35:31.302Z,9.308959
2023-05-14T09:36:31.325Z,9.309010
2023-05-14T09:37:31.194Z,9.308999
2023-05-14T09:38:31.262Z,9.309019
2023-05-14T09:39:31.262Z,9.309006
2023-05-14T09:40:31.130Z,9.308973
2023-05-14T09:41:31.126Z,9.308969
2023-05-14T09:42:31.065Z,9.308976
2023-05-14T09:43:31.069Z,9.309001
2023-05-14T09:44:31.146Z,9.309072
2023-05-14T09:45:31.046Z,9.309045
2023-05-14T09:46:31.067Z,9.309053
2023-05-14T09:47:31.159Z,9.309111
2023-05-14T09:48:31.073Z,9.309094
2023-05-14T09:49:31.114Z,9.309057
2023-05-14T09:50:31.062Z,9.309102
2023-05-14T09:51:31.211Z,9.309068
2023-05-14T09:52:31.269Z,9.308949
2023-05-14T09:53:31.209Z,9.308880
2023-05-14T09:54:31.353Z,9.308893
2023-05-14T09:55:31.086Z,9.308950
2023-05-14T09:56:31.168Z,9.308933
2023-05-14T09:57:31.448Z,9.308948
2023-05-14T09:58:32.991Z,9.308857
2023-05-14T09:59:31.067Z,9.308937
2023-05-14T10:00:31.078Z,9.308918
2023-05-14T10:01:31.043Z,9.308903
2023-05-14T10:02:31.456Z,9.308905
2023-05-14T10:03:31.030Z,9.309039
2023-05-14T10:04:31.338Z,9.309064
2023-05-14T10:05:31.634Z,9.309065
2023-05-14T10:06:31.152Z,9.309064
2023-05-14T10:07:31.045Z,9.309078
2023-05-14T10:08:31.306Z,9.309033
2023-05-14T10:09:31.088Z,9.309104
2023-05-14T10:10:30.962Z,9.309165
2023-05-14T10:11:31.624Z,9.309111
2023-05-14T10:12:31.040Z,9.309098
2023-05-14T10:13:30.998Z,9.309130
2023-05-14T10:14:30.966Z,9.309187
2023-05-14T10:15:30.940Z,9.309105
2023-05-14T10:16:32.306Z,9.309097
2023-05-14T10:17:31.032Z,9.309044
2023-05-14T10:18:31.163Z,9.309106
2023-05-14T10:19:31.269Z,9.309132
2023-05-14T10:20:30.866Z,9.309136
2023-05-14T10:21:30.914Z,9.309042
2023-05-14T10:22:31.104Z,9.309096
2023-05-14T10:23:30.885Z,9.309095
2023-05-14T10:24:30.920Z,9.309088
2023-05-14T10:25:30.891Z,9.309097
2023-05-14T10:26:30.945Z,9.309077
2023-05-14T10:27:30.891Z,9.309112
2023-05-14T10:28:30.995Z,9.309104
2023-05-14T10:29:30.824Z,9.309059
2023-05-14T10:30:30.947Z,9.309070
2023-05-14T10:31:31.144Z,9.309068
2023-05-14T10:32:31.359Z,9.309094
2023-05-14T10:33:31.262Z,9.309068
2023-05-14T10:34:30.862Z,9.309055
2023-05-14T10:35:31.342Z,9.309072
2023-05-14T10:36:35.364Z,9.309101
2023-05-14T10:37:31.353Z,9.309134
2023-05-14T10:38:31.127Z,9.309130
2023-05-14T10:39:30.754Z,9.309151
2023-05-14T10:40:30.680Z,9.309126
2023-05-14T10:41:30.697Z,9.309165
2023-05-14T10:42:30.815Z,9.309179
2023-05-14T10:43:31.832Z,9.309206
2023-05-14T10:44:30.914Z,9.309284
2023-05-14T10:45:30.732Z,9.309186
2023-05-14T10:46:30.825Z,9.309156
2023-05-14T10:47:35.941Z,9.309096
2023-05-14T10:48:31.701Z,9.309127
2023-05-14T10:49:42.999Z,9.309095
2023-05-14T10:50:32.840Z,9.309164
2023-05-14T10:51:32.396Z,9.309117
2023-05-14T10:52:31.001Z,9.309173
2023-05-14T10:53:31.149Z,9.309029
2023-05-14T10:54:30.781Z,9.308957
2023-05-14T10:55:31.013Z,9.308887
2023-05-14T10:56:30.750Z,9.308830
2023-05-14T10:57:30.855Z,9.309007
2023-05-14T10:58:30.658Z,9.309098
2023-05-14T10:59:30.651Z,9.309082
2023-05-14T11:00:30.737Z,9.309146
2023-05-14T11:01:30.824Z,9.309028
2023-05-14T11:02:30.728Z,9.309052
2023-05-14T11:03:30.981Z,9.309060
2023-05-14T11:04:30.952Z,9.309043
2023-05-14T11:05:31.111Z,9.309001
2023-05-14T11:06:30.586Z,9.309017
2023-05-14T11:07:30.616Z,9.309021
2023-05-14T11:08:30.687Z,9.309087
2023-05-14T11:09:30.971Z,9.309165
2023-05-14T11:10:31.241Z,9.309203
2023-05-14T11:11:30.877Z,9.309176
2023-05-14T11:12:30.754Z,9.309142
2023-05-14T11:13:30.507Z,9.309113
2023-05-14T11:14:30.607Z,9.309134
2023-05-14T11:15:30.631Z,9.309154
2023-05-14T11:16:30.822Z,9.309162
2023-05-14T11:17:30.858Z,9.309151
2023-05-14T11:18:30.677Z,9.309165
2023-05-14T11:19:30.813Z,9.309163
2023-05-14T11:20:30.876Z,9.309058
2023-05-14T11:21:30.775Z,9.309170
2023-05-14T11:22:30.940Z,9.309071
2023-05-14T11:23:30.965Z,9.309094
2023-05-14T11:24:30.854Z,9.309066
2023-05-14T11:25:31.371Z,9.309016
2023-05-14T11:26:30.922Z,9.309113
2023-05-14T11:27:31.088Z,9.309130
2023-05-14T11:28:31.098Z,9.309073
2023-05-14T11:29:31.039Z,9.309049
2023-05-14T11:30:31.623Z,9.309078
2023-05-14T11:31:30.676Z,9.309126
2023-05-14T11:32:31.111Z,9.309114
2023-05-14T11:33:30.872Z,9.309115
2023-05-14T11:34:30.873Z,9.309083
2023-05-14T11:35:30.355Z,9.309067
2023-05-14T11:36:30.849Z,9.309038
2023-05-14T11:37:31.141Z,9.309093
2023-05-14T11:38:30.996Z,9.309114
2023-05-14T11:39:31.747Z,9.309119
2023-05-14T11:40:31.115Z,9.309097
2023-05-14T11:41:30.952Z,9.309132
2023-05-14T11:42:30.352Z,9.309134
2023-05-14T11:43:32.076Z,9.309085
2023-05-14T11:44:30.829Z,9.309134
2023-05-14T11:45:30.832Z,9.309117
2023-05-14T11:46:30.899Z,9.309132
2023-05-14T11:47:31.023Z,9.309216
2023-05-14T11:48:31.053Z,9.309162
2023-05-14T11:49:31.011Z,9.309184
2023-05-14T11:50:31.789Z,9.309177
2023-05-14T11:51:30.932Z,9.309169
2023-05-14T11:52:31.157Z,9.309160
2023-05-14T11:53:30.960Z,9.309151
2023-05-14T11:54:30.540Z,9.309130
2023-05-14T11:55:30.245Z,9.309135
2023-05-14T11:56:30.966Z,9.309180
2023-05-14T11:57:30.760Z,9.309115
2023-05-14T11:58:30.631Z,9.309184
2023-05-14T11:59:30.345Z,9.309204
2023-05-14T12:00:30.499Z,9.309136
2023-05-14T12:01:30.314Z,9.309159
2023-05-14T12:02:30.374Z,9.309118
2023-05-14T12:03:30.618Z,9.309207
2023-05-14T12:04:30.640Z,9.309130
2023-05-14T12:05:30.525Z,9.309238
2023-05-14T12:06:30.435Z,9.309114
2023-05-14T12:07:30.558Z,9.309120
2023-05-14T12:08:30.595Z,9.309119
2023-05-14T12:09:30.505Z,9.309201
2023-05-14T12:10:30.573Z,9.309203
2023-05-14T12:11:30.536Z,9.309179
2023-05-14T12:12:30.548Z,9.309119
2023-05-14T12:13:30.400Z,9.309079
2023-05-14T12:14:30.601Z,9.309107
2023-05-14T12:15:30.606Z,9.309203
2023-05-14T12:16:30.696Z,9.309183
2023-05-14T12:17:30.065Z,9.309187
2023-05-14T12:18:30.262Z,9.309160
2023-05-14T12:19:30.481Z,9.309180
2023-05-14T12:20:30.225Z,9.309090
2023-05-14T12:21:30.417Z,9.309108
2023-05-14T12:22:30.128Z,9.309159
2023-05-14T12:23:30.230Z,9.309150
2023-05-14T12:24:30.120Z,9.309116
2023-05-14T12:25:30.496Z,9.309073
2023-05-14T12:26:30.097Z,9.309084
2023-05-14T12:27:30.255Z,9.309113
2023-05-14T12:28:30.243Z,9.309073
2023-05-14T12:29:30.180Z,9.309110
2023-05-14T12:30:30.646Z,9.309088
2023-05-14T12:31:30.220Z,9.309082
2023-05-14T12:32:30.053Z,9.309079
2023-05-14T12:33:30.422Z,9.309040
2023-05-14T12:34:30.172Z,9.309143
2023-05-14T12:35:30.159Z,9.309053
2023-05-14T12:36:30.341Z,9.309056
2023-05-14T12:37:31.273Z,9.309056
2023-05-14T12:38:31.689Z,9.309059
2023-05-14T12:39:30.634Z,9.309059
2023-05-14T12:40:30.168Z,9.309076
2023-05-14T12:41:30.769Z,9.309080
2023-05-14T12:42:30.342Z,9.309088
2023-05-14T12:43:30.167Z,9.309082
2023-05-14T12:44:30.508Z,9.309061
2023-05-14T12:45:30.578Z,9.309069
2023-05-14T12:46:30.755Z,9.309061
2023-05-14T12:47:31.218Z,9.309153
2023-05-14T12:48:30.638Z,9.309082
2023-05-14T12:49:30.629Z,9.309093
2023-05-14T12:50:30.517Z,9.309112
2023-05-14T12:51:30.473Z,9.309082
2023-05-14T12:52:37.366Z,9.309094
2023-05-14T12:53:32.532Z,9.309134
2023-05-14T12:54:30.436Z,9.309143
2023-05-14T12:55:30.349Z,9.309106
2023-05-14T12:56:29.795Z,9.309121
2023-05-14T12:57:30.551Z,9.309126
2023-05-14T12:58:29.837Z,9.309096
2023-05-14T12:59:30.392Z,9.309094
2023-05-14T13:00:30.358Z,9.309121
2023-05-14T13:01:29.984Z,9.309106
2023-05-14T13:02:30.544Z,9.309016
2023-05-14T13:03:30.294Z,9.309092
2023-05-14T13:04:30.253Z,9.309082
2023-05-14T13:05:30.332Z,9.309100
2023-05-14T13:06:30.386Z,9.309121
2023-05-14T13:07:30.313Z,9.309094
2023-05-14T13:08:29.935Z,9.309093
2023-05-14T13:09:30.184Z,9.309074
2023-05-14T13:10:30.161Z,9.309097
2023-05-14T13:11:29.927Z,9.309130
2023-05-14T13:12:29.812Z,9.309114